Time;durP1;ratioP1;P1;durP2;ratioP2;P2;SDS_P1;SDS_P2;PMS_P1;PMS_P2;Temp;Humidity;BMP_temperature;BMP_pressure;BME280_temperature;BME280_humidity;BME280_pressure;Samples;Min_cycle;Max_cycle;Signal;HPM_P1;HPM_P2
2024/02/14 00:00:13;;;;;;;5.20;1.67;;;;;;;3.64;57.95;101383.22;5000308;28;20159;-69
2024/02/14 00:02:44;;;;;;;5.40;1.35;;;;;;;3.73;57.49;101376.28;4979780;28;20202;-68
2024/02/14 00:05:10;;;;;;;3.25;1.33;;;;;;;3.60;57.35;101372.03;4994500;28;20071;-74
2024/02/14 00:07:37;;;;;;;4.15;1.98;;;;;;;3.62;57.91;101364.28;4981136;28;20871;-73
2024/02/14 00:10:05;;;;;;;3.67;1.48;;;;;;;3.61;58.21;101376.34;4977851;28;20963;-73
2024/02/14 00:12:32;;;;;;;3.47;1.50;;;;;;;3.33;59.25;101358.31;4979423;28;20060;-73
2024/02/14 00:14:58;;;;;;;6.88;1.45;;;;;;;3.55;58.54;101359.13;4981170;28;20368;-74
2024/02/14 00:17:23;;;;;;;5.40;1.63;;;;;;;3.70;57.93;101357.38;4990013;28;20061;-75
2024/02/14 00:19:49;;;;;;;6.88;1.60;;;;;;;3.66;58.27;101347.91;5002701;28;20556;-75
2024/02/14 00:22:14;;;;;;;3.85;1.95;;;;;;;3.69;58.09;101347.88;5009105;28;20064;-74
2024/02/14 00:24:39;;;;;;;10.30;2.58;;;;;;;3.59;58.61;101334.97;5010541;28;20036;-74
2024/02/14 00:27:06;;;;;;;4.63;2.10;;;;;;;3.56;58.62;101335.00;4989202;28;20041;-74
2024/02/14 00:29:33;;;;;;;6.35;2.58;;;;;;;3.64;58.61;101331.53;4991344;28;20546;-74
2024/02/14 00:32:01;;;;;;;7.25;2.72;;;;;;;3.59;58.78;101326.38;4980530;28;20289;-74
2024/02/14 00:34:26;;;;;;;5.75;2.78;;;;;;;3.51;59.00;101321.22;5009240;28;20068;-65
2024/02/14 00:36:52;;;;;;;5.68;2.20;;;;;;;3.52;59.22;101322.94;4978269;28;20276;-65
2024/02/14 00:39:18;;;;;;;6.03;2.63;;;;;;;3.38;60.13;101319.53;5006138;28;20040;-65
2024/02/14 00:41:47;;;;;;;5.97;2.90;;;;;;;3.52;59.39;101317.78;4986552;28;20121;-65
2024/02/14 00:44:13;;;;;;;6.72;3.22;;;;;;;3.65;59.21;101317.72;5006324;28;20044;-63
2024/02/14 00:46:38;;;;;;;6.00;3.10;;;;;;;3.59;59.25;101309.13;5006990;28;20045;-63
2024/02/14 00:49:04;;;;;;;9.13;2.90;;;;;;;3.54;59.66;101313.47;4997193;28;21239;-73
2024/02/14 00:51:29;;;;;;;3.33;2.42;;;;;;;3.49;59.72;101307.47;5008185;28;20110;-71
2024/02/14 00:53:56;;;;;;;7.22;3.17;;;;;;;3.54;59.59;101302.28;4931511;28;20033;-71
2024/02/14 00:56:23;;;;;;;7.45;3.67;;;;;;;3.58;59.59;101299.69;4974037;28;20206;-72
2024/02/14 00:58:50;;;;;;;5.63;3.42;;;;;;;3.57;59.66;101290.19;4970490;28;20201;-70
2024/02/14 01:01:18;;;;;;;8.30;3.55;;;;;;;3.51;59.95;101290.19;4942352;28;20167;-72
2024/02/14 01:03:44;;;;;;;8.38;3.72;;;;;;;3.55;60.14;101291.91;4975779;28;20028;-72
2024/02/14 01:06:12;;;;;;;6.32;3.38;;;;;;;3.57;59.60;101290.19;4916939;28;21583;-70
2024/02/14 01:08:42;;;;;;;7.80;4.15;;;;;;;3.41;60.04;101285.94;4938130;28;20285;-72
2024/02/14 01:11:12;;;;;;;5.53;3.15;;;;;;;2.98;61.56;101281.72;4948316;28;20065;-71
2024/02/14 01:13:38;;;;;;;9.35;4.13;;;;;;;3.35;60.55;101276.47;4975718;28;20038;-74
2024/02/14 01:16:04;;;;;;;9.15;4.07;;;;;;;3.37;60.33;101263.56;4986540;28;20041;-71
2024/02/14 01:18:30;;;;;;;12.25;4.15;;;;;;;3.31;60.69;101268.75;5006415;28;20551;-72
2024/02/14 01:20:56;;;;;;;9.40;5.03;;;;;;;3.26;60.84;101265.31;4959065;28;20253;-70
2024/02/14 01:23:22;;;;;;;5.25;4.28;;;;;;;3.43;60.57;101258.38;4999889;28;20037;-73
2024/02/14 01:25:48;;;;;;;7.10;4.20;;;;;;;3.28;61.27;101255.81;5008037;28;20707;-71
2024/02/14 01:28:14;;;;;;;9.80;5.07;;;;;;;3.14;61.51;101259.31;4963801;28;20037;-71
2024/02/14 01:30:41;;;;;;;9.20;5.00;;;;;;;3.35;60.83;101247.22;4961930;28;20048;-72
2024/02/14 01:33:06;;;;;;;11.25;5.05;;;;;;;3.38;60.91;101237.72;4999632;28;20454;-65
2024/02/14 01:35:31;;;;;;;6.47;4.70;;;;;;;3.34;60.52;101245.50;5009042;28;20033;-64
2024/02/14 01:37:57;;;;;;;11.60;4.50;;;;;;;3.39;61.02;101238.59;4997338;28;20537;-67
2024/02/14 01:40:23;;;;;;;8.63;4.68;;;;;;;3.44;60.87;101242.00;5009547;28;20550;-67
2024/02/14 01:42:49;;;;;;;8.23;5.30;;;;;;;3.45;60.48;101238.56;5004486;28;20045;-66
2024/02/14 01:45:15;;;;;;;7.78;5.47;;;;;;;3.36;61.01;101234.28;4997443;28;20129;-68
2024/02/14 01:47:41;;;;;;;10.35;5.25;;;;;;;3.35;61.19;101237.72;5008380;28;20504;-67
2024/02/14 01:50:11;;;;;;;12.05;5.95;;;;;;;3.45;61.25;101228.22;5002321;28;20104;-68
2024/02/14 01:52:40;;;;;;;10.90;7.10;;;;;;;3.33;61.67;101231.69;5008704;28;20037;-67
2024/02/14 01:55:07;;;;;;;12.45;5.80;;;;;;;3.09;62.60;101224.91;4988941;28;20044;-68
2024/02/14 01:57:34;;;;;;;11.45;6.60;;;;;;;3.38;61.58;101222.22;4994977;28;20045;-67
2024/02/14 02:00:08;;;;;;;9.98;6.25;;;;;;;3.28;61.91;101214.50;4983966;28;20060;-67
2024/02/14 02:02:37;;;;;;;9.73;6.95;;;;;;;3.40;61.79;101219.63;5009679;28;20043;-67
2024/02/14 02:05:07;;;;;;;9.90;7.07;;;;;;;3.47;61.43;101211.00;4999468;28;20090;-68
2024/02/14 02:07:33;;;;;;;11.65;6.80;;;;;;;3.26;61.92;101211.03;4989769;28;20040;-71
2024/02/14 02:10:04;;;;;;;11.18;6.68;;;;;;;3.14;62.69;101206.78;4990480;28;20140;-76
2024/02/14 02:12:51;;;;;;;13.50;6.68;;;;;;;3.25;62.49;101204.16;4962726;28;20056;-77
2024/02/14 02:15:17;;;;;;;11.65;6.82;;;;;;;3.37;62.02;101202.41;4950521;28;20167;-76
2024/02/14 02:17:45;;;;;;;13.82;6.95;;;;;;;3.28;62.25;101205.00;4952526;28;20530;-75
2024/02/14 02:20:13;;;;;;;14.27;8.07;;;;;;;3.44;62.09;101195.50;4974234;28;20203;-78
2024/02/14 02:22:46;;;;;;;11.18;7.18;;;;;;;2.82;63.43;101188.81;4963456;28;20335;-77
2024/02/14 02:25:14;;;;;;;13.68;8.07;;;;;;;3.19;63.00;101192.97;4955131;28;20208;-76
2024/02/14 02:27:41;;;;;;;11.60;8.48;;;;;;;3.09;63.45;101183.56;4985387;28;20207;-72
2024/02/14 02:30:13;;;;;;;11.43;7.93;;;;;;;3.44;62.37;101182.56;4979350;28;20112;-72
2024/02/14 02:32:39;;;;;;;10.68;7.45;;;;;;;3.35;62.38;101173.13;5009983;28;20041;-71
2024/02/14 02:35:04;;;;;;;13.02;8.07;;;;;;;3.47;62.27;101167.06;5001873;28;20039;-71
2024/02/14 02:37:30;;;;;;;12.77;9.15;;;;;;;3.40;62.26;101165.34;5005324;28;20846;-71
2024/02/14 02:39:57;;;;;;;14.40;8.13;;;;;;;3.47;62.19;101167.06;5011660;28;20037;-71
2024/02/14 02:42:22;;;;;;;12.10;8.23;;;;;;;3.67;61.48;101166.06;4964712;28;20107;-72
2024/02/14 02:44:50;;;;;;;13.73;8.02;;;;;;;3.62;61.98;101167.81;4978379;28;20076;-72
2024/02/14 02:47:16;;;;;;;13.57;9.23;;;;;;;3.74;61.36;101160.84;4990730;28;20122;-71
2024/02/14 02:49:44;;;;;;;12.60;7.75;;;;;;;3.75;61.33;101154.81;5012481;28;20037;-72
2024/02/14 02:52:10;;;;;;;14.68;8.82;;;;;;;3.77;61.14;101150.47;5001013;28;20586;-72
2024/02/14 02:54:36;;;;;;;15.10;8.68;;;;;;;3.79;61.46;101147.88;5010452;28;20035;-72
2024/02/14 02:57:03;;;;;;;11.82;7.78;;;;;;;3.82;61.38;101144.41;4977728;28;20068;-73
2024/02/14 02:59:29;;;;;;;13.77;8.30;;;;;;;3.91;61.40;101137.44;4993019;28;20041;-72
2024/02/14 03:01:55;;;;;;;14.25;8.43;;;;;;;3.80;61.49;101139.25;4999328;28;20045;-73
2024/02/14 03:04:20;;;;;;;15.75;7.72;;;;;;;3.44;62.47;101133.47;5000946;28;21961;-73
2024/02/14 03:06:46;;;;;;;13.38;8.23;;;;;;;3.75;61.76;101128.94;5009309;28;20061;-72
2024/02/14 03:09:13;;;;;;;11.65;7.25;;;;;;;3.81;61.73;101135.81;5002297;28;20037;-71
2024/02/14 03:11:39;;;;;;;14.18;8.43;;;;;;;3.44;62.88;101143.81;5012995;28;20041;-71
2024/02/14 03:14:05;;;;;;;11.63;8.70;;;;;;;3.70;62.18;101133.31;4980040;28;20064;-67
2024/02/14 03:16:31;;;;;;;14.15;8.27;;;;;;;3.68;62.44;101126.44;5008211;28;20044;-72
2024/02/14 03:18:56;;;;;;;12.95;8.57;;;;;;;3.62;62.50;101127.31;4996270;28;20037;-72
2024/02/14 03:21:22;;;;;;;13.57;8.00;;;;;;;3.67;62.66;101122.13;4999711;28;20717;-70
2024/02/14 03:23:48;;;;;;;11.52;7.82;;;;;;;3.63;62.94;101110.06;4992125;28;20044;-67
2024/02/14 03:26:14;;;;;;;13.50;7.35;;;;;;;3.62;63.39;101105.78;4995254;28;20041;-63
2024/02/14 03:28:39;;;;;;;13.15;9.27;;;;;;;3.84;62.37;101107.34;4973497;28;20029;-62
2024/02/14 03:31:06;;;;;;;11.65;7.72;;;;;;;3.62;62.69;101108.38;4981628;28;20056;-64
2024/02/14 03:33:31;;;;;;;11.98;7.85;;;;;;;3.57;62.62;101106.66;4988517;28;20040;-67
2024/02/14 03:35:57;;;;;;;10.88;7.45;;;;;;;3.58;63.05;101099.78;4982783;28;20310;-64
2024/02/14 03:38:27;;;;;;;10.02;6.78;;;;;;;3.77;62.28;101101.34;4944368;28;24086;-66
2024/02/14 03:40:54;;;;;;;10.90;7.85;;;;;;;3.86;62.31;101090.09;4943014;28;20121;-66
2024/02/14 03:43:20;;;;;;;10.82;6.63;;;;;;;3.94;62.22;101098.63;4969310;28;20495;-66
2024/02/14 03:45:47;;;;;;;13.05;7.88;;;;;;;4.06;61.73;101092.50;5001596;28;20033;-68
2024/02/14 03:48:14;;;;;;;13.25;8.43;;;;;;;3.88;62.43;101082.31;4962815;28;20256;-65
2024/02/14 03:50:45;;;;;;;10.95;7.40;;;;;;;3.81;62.49;101084.09;4944060;28;20652;-66
2024/02/14 03:53:12;;;;;;;10.45;6.40;;;;;;;3.86;62.71;101079.75;4950770;28;21130;-66
2024/02/14 03:55:39;;;;;;;12.25;7.25;;;;;;;3.82;62.65;101077.19;4948584;28;20119;-66
2024/02/14 03:58:08;;;;;;;11.05;7.70;;;;;;;3.92;62.45;101079.69;4932814;28;20119;-63
2024/02/14 04:00:35;;;;;;;10.68;7.40;;;;;;;3.82;62.48;101075.47;4959151;28;20029;-70
2024/02/14 04:03:02;;;;;;;11.35;7.50;;;;;;;4.00;62.46;101077.88;5007013;28;20051;-70
2024/02/14 04:05:29;;;;;;;9.88;7.28;;;;;;;4.08;62.17;101076.97;4985262;28;20769;-68
2024/02/14 04:07:55;;;;;;;9.32;6.78;;;;;;;3.83;63.01;101079.78;5004163;28;20119;-68
2024/02/14 04:10:22;;;;;;;9.48;6.43;;;;;;;4.07;62.59;101077.81;4954331;28;20578;-65
2024/02/14 04:12:47;;;;;;;11.90;7.47;;;;;;;4.13;62.10;101077.78;4992951;28;20403;-67
2024/02/14 04:15:13;;;;;;;8.60;6.40;;;;;;;4.06;62.63;101076.13;4996737;28;20052;-66
2024/02/14 04:17:41;;;;;;;9.05;6.22;;;;;;;3.87;63.05;101076.25;5008011;28;21868;-67
2024/02/14 04:20:07;;;;;;;10.40;7.25;;;;;;;4.08;62.41;101074.38;4977652;28;20570;-66
2024/02/14 04:22:33;;;;;;;10.75;6.63;;;;;;;3.98;62.54;101069.31;4978671;28;20041;-65
2024/02/14 04:24:59;;;;;;;8.07;6.47;;;;;;;4.11;62.56;101071.75;5004432;28;20059;-65
2024/02/14 04:27:24;;;;;;;9.15;6.97;;;;;;;3.91;63.01;101070.19;4993746;28;20056;-66
2024/02/14 04:29:50;;;;;;;10.55;6.30;;;;;;;4.20;62.72;101069.91;5006447;28;24235;-65
2024/02/14 04:32:15;;;;;;;9.15;6.85;;;;;;;4.22;62.69;101068.16;4999709;28;20040;-64
2024/02/14 04:34:41;;;;;;;9.38;6.32;;;;;;;4.01;63.31;101061.50;5005499;28;20107;-65
2024/02/14 04:37:10;;;;;;;8.13;5.78;;;;;;;4.12;62.93;101060.50;5010080;28;20574;-65
2024/02/14 04:39:39;;;;;;;12.20;7.00;;;;;;;4.15;62.79;101065.69;4981765;28;20075;-66
2024/02/14 04:42:04;;;;;;;10.15;7.20;;;;;;;4.22;62.85;101056.97;4989864;28;20459;-65
2024/02/14 04:44:31;;;;;;;8.93;6.03;;;;;;;4.01;63.46;101055.47;4969660;28;20032;-71
2024/02/14 04:47:00;;;;;;;10.27;7.93;;;;;;;4.29;62.72;101055.19;4986444;28;20034;-70
2024/02/14 04:49:28;;;;;;;9.80;5.65;;;;;;;4.34;62.51;101055.97;4996555;28;20064;-71
2024/02/14 04:51:55;;;;;;;9.98;6.72;;;;;;;4.00;63.65;101056.34;4976971;28;20491;-68
2024/02/14 04:54:21;;;;;;;8.48;6.07;;;;;;;4.27;62.87;101055.19;4994664;28;20045;-68
2024/02/14 04:56:46;;;;;;;8.88;5.95;;;;;;;4.25;63.03;101051.75;4983280;28;20108;-69
2024/02/14 04:59:12;;;;;;;9.15;6.25;;;;;;;4.37;62.67;101054.22;4979257;28;20405;-68
2024/02/14 05:01:42;;;;;;;7.22;5.95;;;;;;;4.35;62.56;101049.94;4963262;28;20898;-71
2024/02/14 05:04:09;;;;;;;8.75;6.88;;;;;;;4.21;63.22;101055.28;4946765;28;20483;-67
2024/02/14 05:06:38;;;;;;;11.20;6.10;;;;;;;4.42;62.60;101055.03;4929893;28;20574;-69
2024/02/14 05:09:06;;;;;;;10.02;6.53;;;;;;;4.39;63.14;101055.06;4979361;28;20113;-66
2024/02/14 05:11:32;;;;;;;7.95;5.40;;;;;;;4.35;62.92;101055.13;4960906;28;20037;-71
2024/02/14 05:13:58;;;;;;;9.05;5.68;;;;;;;3.80;64.47;101051.34;5005574;28;20037;-70
2024/02/14 05:16:24;;;;;;;7.80;5.88;;;;;;;4.31;63.84;101050.84;4991991;28;20120;-68
2024/02/14 05:18:49;;;;;;;8.90;6.55;;;;;;;4.31;64.07;101051.69;4975653;28;20064;-68
2024/02/14 05:21:16;;;;;;;8.80;5.53;;;;;;;4.11;64.06;101053.63;4974304;28;20059;-68
2024/02/14 05:23:43;;;;;;;7.80;5.05;;;;;;;4.51;63.39;101048.88;4994030;28;20720;-69
2024/02/14 05:26:08;;;;;;;7.72;5.28;;;;;;;4.00;64.77;101048.56;5011045;28;20132;-69
2024/02/14 05:28:34;;;;;;;8.77;6.15;;;;;;;4.32;64.07;101053.44;4999694;28;20033;-69
2024/02/14 05:31:00;;;;;;;8.60;5.90;;;;;;;3.85;65.74;101047.00;5003981;28;20084;-69
2024/02/14 05:33:26;;;;;;;7.10;5.00;;;;;;;4.56;63.72;101043.66;5002127;28;20189;-69
2024/02/14 05:35:52;;;;;;;5.75;4.38;;;;;;;4.28;64.53;101045.72;5007069;28;20115;-66
2024/02/14 05:38:21;;;;;;;7.13;4.95;;;;;;;4.63;63.48;101042.69;4993614;28;20036;-69
2024/02/14 05:40:50;;;;;;;7.03;5.10;;;;;;;4.51;63.67;101053.22;4991294;28;20060;-69
2024/02/14 05:43:18;;;;;;;7.22;4.70;;;;;;;4.67;63.61;101046.97;5011537;28;20033;-70
2024/02/14 05:45:44;;;;;;;6.47;5.30;;;;;;;4.74;63.32;101040.81;5002908;28;20061;-72
2024/02/14 05:48:10;;;;;;;8.75;6.07;;;;;;;4.79;62.96;101044.22;5015433;28;20141;-73
2024/02/14 05:50:36;;;;;;;6.20;4.78;;;;;;;4.74;63.12;101048.59;4999766;28;20109;-72
2024/02/14 05:53:03;;;;;;;7.68;5.03;;;;;;;4.63;63.79;101053.94;5011306;28;20107;-65
2024/02/14 05:55:28;;;;;;;6.18;4.43;;;;;;;4.38;64.61;101058.50;4997295;28;20141;-69
2024/02/14 05:57:53;;;;;;;8.98;4.72;;;;;;;4.73;63.82;101054.66;5012587;28;20463;-70
2024/02/14 06:00:20;;;;;;;6.75;4.85;;;;;;;4.53;64.78;101054.03;5013040;28;20118;-70
2024/02/14 06:02:47;;;;;;;7.82;4.85;;;;;;;4.50;65.15;101057.53;4999154;28;20084;-71
2024/02/14 06:05:13;;;;;;;7.50;5.45;;;;;;;4.52;64.70;101054.91;5007581;28;20033;-73
2024/02/14 06:07:42;;;;;;;6.95;4.88;;;;;;;4.34;65.52;101062.03;4964521;28;20477;-70
2024/02/14 06:10:11;;;;;;;7.22;4.68;;;;;;;4.88;64.04;101057.94;4974076;28;20032;-69
2024/02/14 06:12:38;;;;;;;5.45;4.53;;;;;;;4.80;64.32;101056.28;4950235;28;20384;-69
2024/02/14 06:15:07;;;;;;;7.40;4.28;;;;;;;4.94;63.89;101061.31;4960587;28;20256;-69
2024/02/14 06:17:37;;;;;;;6.10;4.10;;;;;;;4.90;63.80;101057.06;4948934;28;20200;-70
2024/02/14 06:20:06;;;;;;;5.18;3.47;;;;;;;4.77;64.90;101066.69;4946899;28;20538;-68
2024/02/14 06:22:33;;;;;;;5.22;4.03;;;;;;;4.48;65.37;101066.19;5002496;28;20498;-75
2024/02/14 06:25:04;;;;;;;5.63;3.63;;;;;;;4.85;64.55;101064.00;5008479;28;20104;-72
2024/02/14 06:27:30;;;;;;;3.03;2.40;;;;;;;4.70;65.49;101070.25;5002190;28;20063;-73
2024/02/14 06:29:56;;;;;;;4.80;3.05;;;;;;;4.88;64.87;101069.19;5000895;28;20268;-73
2024/02/14 06:32:22;;;;;;;4.18;3.30;;;;;;;4.77;65.64;101066.69;5006765;28;20060;-69
2024/02/14 06:34:47;;;;;;;4.45;3.40;;;;;;;4.50;66.44;101073.06;5000741;28;20057;-71
2024/02/14 06:37:13;;;;;;;5.55;3.35;;;;;;;4.64;66.37;101070.31;4994616;28;20543;-70
2024/02/14 06:39:38;;;;;;;3.42;2.85;;;;;;;4.79;66.28;101080.47;5006295;28;20394;-79
2024/02/14 06:42:04;;;;;;;3.88;2.90;;;;;;;5.11;65.28;101080.97;5004635;28;20041;-75
2024/02/14 06:44:29;;;;;;;5.70;2.97;;;;;;;5.23;64.58;101081.66;4983801;28;20103;-72
2024/02/14 06:46:55;;;;;;;4.20;2.63;;;;;;;4.72;66.83;101084.03;5013205;28;20522;-78
2024/02/14 06:49:20;;;;;;;2.80;2.40;;;;;;;5.24;64.99;101091.13;4997853;28;20035;-78
2024/02/14 06:51:46;;;;;;;4.75;2.50;;;;;;;5.33;64.95;101091.88;4989246;28;20314;-72
2024/02/14 06:54:15;;;;;;;4.72;2.53;;;;;;;5.06;66.03;101096.56;4994616;28;20115;-78
2024/02/14 06:56:40;;;;;;;4.35;2.38;;;;;;;5.15;65.79;101093.84;5004718;28;20094;-73
2024/02/14 06:59:06;;;;;;;3.67;2.65;;;;;;;5.35;64.92;101096.16;4982971;28;20049;-72
2024/02/14 07:01:31;;;;;;;4.05;2.53;;;;;;;5.24;65.88;101098.91;4982343;28;20263;-72
2024/02/14 07:03:58;;;;;;;3.15;2.17;;;;;;;5.29;66.08;101095.41;5008084;28;20037;-72
2024/02/14 07:06:23;;;;;;;4.05;2.22;;;;;;;5.55;64.99;101114.00;5006131;28;20048;-68
2024/02/14 07:08:49;;;;;;;3.25;1.92;;;;;;;5.09;66.71;101109.47;4997978;28;20396;-69
2024/02/14 07:11:16;;;;;;;2.95;1.85;;;;;;;5.64;65.12;101107.84;5011545;28;20087;-69
2024/02/14 07:13:42;;;;;;;4.38;2.08;;;;;;;5.41;65.75;101105.56;4996421;28;20067;-69
2024/02/14 07:16:07;;;;;;;2.88;1.60;;;;;;;5.35;66.12;101121.25;5008712;28;20636;-65
2024/02/14 07:18:34;;;;;;;2.67;1.42;;;;;;;5.35;66.48;101105.69;4980396;28;20033;-64
2024/02/14 07:20:59;;;;;;;2.35;1.40;;;;;;;5.38;66.67;101119.44;5011681;28;20200;-69
2024/02/14 07:23:26;;;;;;;2.17;1.10;;;;;;;5.50;65.98;101120.13;5005328;28;20129;-68
2024/02/14 07:25:51;;;;;;;2.35;1.10;;;;;;;5.50;66.26;101120.13;4987348;28;21068;-67
2024/02/14 07:28:17;;;;;;;2.70;1.63;;;;;;;5.55;65.88;101116.59;4991108;28;20041;-68
2024/02/14 07:30:43;;;;;;;4.32;1.77;;;;;;;5.30;67.09;101120.41;4974211;28;20502;-67
2024/02/14 07:33:09;;;;;;;2.90;1.17;;;;;;;5.38;66.81;101119.44;5007200;28;20116;-67
2024/02/14 07:35:36;;;;;;;4.82;1.58;;;;;;;5.65;66.16;101125.94;4993487;28;20108;-67
2024/02/14 07:38:02;;;;;;;2.75;1.52;;;;;;;5.74;65.62;101119.75;4988566;28;20538;-69
2024/02/14 07:40:30;;;;;;;5.68;1.23;;;;;;;5.80;65.44;101124.00;4997193;28;20033;-68
2024/02/14 07:42:57;;;;;;;3.67;1.60;;;;;;;5.67;66.21;101126.78;4952784;28;20040;-66
2024/02/14 07:45:22;;;;;;;2.55;1.45;;;;;;;5.49;67.02;101128.81;4975200;28;20736;-66
2024/02/14 07:47:51;;;;;;;2.78;1.27;;;;;;;6.04;65.34;101128.78;4991981;28;20045;-66
2024/02/14 07:50:17;;;;;;;4.00;2.33;;;;;;;5.91;65.49;101132.47;5008853;28;20764;-68
2024/02/14 07:52:46;;;;;;;4.80;2.08;;;;;;;5.43;67.73;101134.91;4994643;28;20045;-68
2024/02/14 07:55:13;;;;;;;3.20;1.85;;;;;;;5.77;66.61;101137.00;5003729;28;20563;-68
2024/02/14 07:57:42;;;;;;;3.75;2.40;;;;;;;5.80;65.82;101144.75;4993704;28;20041;-65
2024/02/14 08:00:08;;;;;;;3.28;1.90;;;;;;;6.05;66.23;101135.69;5004353;28;20500;-67
2024/02/14 08:02:35;;;;;;;3.85;2.53;;;;;;;6.00;66.35;101145.28;4980534;28;20036;-66
2024/02/14 08:05:01;;;;;;;3.13;2.00;;;;;;;6.08;65.87;101143.44;4989811;28;20070;-66
2024/02/14 08:07:30;;;;;;;2.88;2.10;;;;;;;6.05;65.47;101147.81;4983846;28;21028;-68
2024/02/14 08:09:56;;;;;;;4.18;2.03;;;;;;;5.84;66.50;101149.03;4996637;28;20108;-69
2024/02/14 08:12:22;;;;;;;6.45;2.97;;;;;;;5.98;66.36;101144.47;5007140;28;20041;-69
2024/02/14 08:14:48;;;;;;;4.05;2.33;;;;;;;6.07;66.35;101153.81;4997332;28;20025;-67
2024/02/14 08:17:14;;;;;;;3.00;1.75;;;;;;;6.35;65.50;101154.25;5004652;28;20400;-69
2024/02/14 08:19:39;;;;;;;3.88;2.13;;;;;;;5.96;66.34;101151.41;5001688;28;20411;-68
2024/02/14 08:22:05;;;;;;;4.43;2.33;;;;;;;6.20;66.10;101151.88;5002983;28;20048;-67
2024/02/14 08:24:31;;;;;;;2.95;1.65;;;;;;;5.93;67.14;101155.81;5007247;28;20033;-68
2024/02/14 08:26:56;;;;;;;4.15;2.22;;;;;;;5.98;66.82;101160.03;4990841;28;20371;-68
2024/02/14 08:29:23;;;;;;;2.45;1.52;;;;;;;6.09;66.46;101160.69;4995246;28;20542;-68
2024/02/14 08:31:53;;;;;;;2.50;1.35;;;;;;;6.27;66.67;101156.94;4953642;28;20388;-65
2024/02/14 08:34:20;;;;;;;2.10;1.50;;;;;;;6.32;66.05;101158.63;4938242;28;20029;-67
2024/02/14 08:36:47;;;;;;;2.70;1.63;;;;;;;5.98;67.52;101160.03;4939464;28;20182;-67
2024/02/14 08:39:14;;;;;;;2.63;1.58;;;;;;;6.33;66.52;101163.81;4929705;28;20215;-65
2024/02/14 08:41:41;;;;;;;2.20;1.35;;;;;;;6.17;66.61;101168.38;4918143;28;20126;-68
2024/02/14 08:44:07;;;;;;;3.53;1.73;;;;;;;6.00;66.92;101168.63;4942325;28;20275;-67
2024/02/14 08:46:33;;;;;;;2.78;1.40;;;;;;;6.16;67.41;101169.25;5004469;28;20128;-65
2024/02/14 08:49:02;;;;;;;4.22;1.40;;;;;;;6.44;66.31;101172.25;4985480;28;20535;-65
2024/02/14 08:51:28;;;;;;;2.75;1.65;;;;;;;6.18;66.98;101172.66;5005205;28;20049;-67
2024/02/14 08:53:55;;;;;;;2.90;1.67;;;;;;;6.70;65.82;101170.91;4972887;28;20346;-67
2024/02/14 08:56:22;;;;;;;3.03;1.92;;;;;;;6.60;65.29;101175.44;4973636;28;20044;-68
2024/02/14 08:58:48;;;;;;;1.90;1.30;;;;;;;6.46;65.82;101173.09;4994707;28;20037;-69
2024/02/14 09:01:15;;;;;;;2.97;1.33;;;;;;;5.93;68.12;101177.41;5011917;28;20132;-67
2024/02/14 09:03:43;;;;;;;2.10;0.90;;;;;;;6.69;66.16;101175.25;5001872;28;20044;-68
2024/02/14 09:06:08;;;;;;;2.97;1.70;;;;;;;6.79;66.02;101175.06;5001332;28;20521;-69
2024/02/14 09:08:34;;;;;;;3.08;1.40;;;;;;;6.83;65.39;101187.97;4988090;28;20132;-68
2024/02/14 09:11:00;;;;;;;3.58;1.55;;;;;;;6.68;65.85;101180.47;4980885;28;20045;-68
2024/02/14 09:13:27;;;;;;;2.15;1.48;;;;;;;6.55;65.66;101198.03;5010648;28;20026;-68
2024/02/14 09:15:54;;;;;;;2.95;1.70;;;;;;;6.57;66.47;101191.03;4997794;28;20092;-68
2024/02/14 09:18:19;;;;;;;2.30;1.40;;;;;;;6.26;67.74;101195.88;5000650;28;20036;-68
2024/02/14 09:20:46;;;;;;;1.98;1.23;;;;;;;6.48;66.94;101197.28;4969726;28;20115;-67
2024/02/14 09:23:14;;;;;;;3.22;1.65;;;;;;;6.79;66.37;101201.91;5004991;28;20119;-66
2024/02/14 09:25:39;;;;;;;6.70;2.42;;;;;;;6.64;66.76;101204.78;5008803;28;20048;-65
2024/02/14 09:28:07;;;;;;;3.80;2.20;;;;;;;6.79;66.20;101211.44;4998682;28;20029;-65
2024/02/14 09:30:33;;;;;;;7.75;2.95;;;;;;;6.06;68.46;101204.88;4986280;28;20033;-66
2024/02/14 09:33:05;;;;;;;6.50;2.78;;;;;;;6.59;67.48;101206.63;4991848;28;20041;-66
2024/02/14 09:35:31;;;;;;;6.90;3.28;;;;;;;6.41;67.21;101206.03;4948497;28;20695;-66
2024/02/14 09:37:57;;;;;;;8.48;3.25;;;;;;;6.94;66.07;101205.97;4998168;28;20041;-67
2024/02/14 09:40:23;;;;;;;9.23;3.58;;;;;;;7.15;65.47;101211.63;5009167;28;20026;-67
2024/02/14 09:42:55;;;;;;;12.55;3.75;;;;;;;6.74;67.01;101210.69;5001884;28;20041;-67
2024/02/14 09:45:26;;;;;;;17.27;5.18;;;;;;;6.65;67.71;101215.16;4994281;28;20748;-67
2024/02/14 09:47:52;;;;;;;10.75;3.47;;;;;;;7.01;66.37;101211.88;4950099;28;20072;-67
2024/02/14 09:50:20;;;;;;;11.52;3.33;;;;;;;6.24;68.69;101208.06;5005813;28;20438;-68
2024/02/14 09:52:49;;;;;;;13.48;4.40;;;;;;;7.08;66.20;101218.69;4989974;28;20063;-67
2024/02/14 09:55:16;;;;;;;10.57;3.97;;;;;;;6.90;66.59;101212.09;5009461;28;20107;-67
2024/02/14 09:57:43;;;;;;;13.07;3.83;;;;;;;6.82;67.21;101227.84;4962528;28;20076;-65
2024/02/14 10:00:10;;;;;;;20.30;4.53;;;;;;;6.97;66.87;101237.06;4995908;28;21885;-65
2024/02/14 10:02:36;;;;;;;10.25;2.88;;;;;;;7.30;65.72;101230.34;4991149;28;20546;-65
2024/02/14 10:05:02;;;;;;;7.80;2.45;;;;;;;6.65;67.64;101229.88;4999623;28;20048;-65
2024/02/14 10:07:27;;;;;;;13.38;2.67;;;;;;;7.12;66.56;101235.94;4977388;28;20605;-67
2024/02/14 10:09:57;;;;;;;17.90;3.15;;;;;;;7.04;66.60;101232.63;4962572;28;20039;-65
2024/02/14 10:12:22;;;;;;;5.95;2.97;;;;;;;6.97;67.16;101247.47;4980209;28;20410;-67
2024/02/14 10:14:47;;;;;;;6.63;3.30;;;;;;;7.08;66.81;101244.66;4990084;28;20037;-67
2024/02/14 10:17:19;;;;;;;10.43;3.40;;;;;;;7.08;66.95;101249.88;4986300;28;20674;-67
2024/02/14 10:19:55;;;;;;;13.98;3.00;;;;;;;7.35;65.69;101261.47;5007698;28;20048;-65
2024/02/14 10:22:20;;;;;;;14.20;3.17;;;;;;;7.02;67.03;101260.38;4993491;28;20088;-67
2024/02/14 10:24:46;;;;;;;16.80;3.20;;;;;;;7.47;65.42;101258.63;5007865;28;20167;-65
2024/02/14 10:27:11;;;;;;;8.15;3.42;;;;;;;7.32;65.46;101257.19;5001410;28;20449;-64
2024/02/14 10:29:37;;;;;;;7.45;2.78;;;;;;;7.56;65.42;101265.41;5010330;28;20082;-65
2024/02/14 10:32:03;;;;;;;11.20;3.72;;;;;;;7.12;66.08;101270.56;4999042;28;21587;-64
2024/02/14 10:34:29;;;;;;;14.63;4.35;;;;;;;7.06;66.44;101269.84;5013716;28;20224;-66
2024/02/14 10:36:57;;;;;;;14.50;2.85;;;;;;;7.42;65.92;101275.19;5002930;28;20033;-66
2024/02/14 10:39:25;;;;;;;12.50;3.60;;;;;;;7.58;65.36;101281.84;5011760;28;20035;-66
2024/02/14 10:41:50;;;;;;;16.02;4.05;;;;;;;7.08;66.68;101281.06;5010147;28;20457;-66
2024/02/14 10:44:16;;;;;;;16.00;4.47;;;;;;;7.32;66.33;101285.78;4999809;28;20158;-66
2024/02/14 10:46:46;;;;;;;16.88;3.53;;;;;;;7.27;65.92;101285.03;4945912;28;20226;-67
2024/02/14 10:49:18;;;;;;;18.10;4.47;;;;;;;7.12;67.18;101287.91;4941380;28;20194;-65
2024/02/14 10:51:53;;;;;;;18.77;3.95;;;;;;;7.27;66.81;101282.44;4916652;28;20222;-67
2024/02/14 10:54:21;;;;;;;15.57;3.50;;;;;;;7.25;66.50;101285.94;4927036;28;20096;-65
2024/02/14 10:56:55;;;;;;;18.88;4.82;;;;;;;7.50;65.90;101287.16;4927742;28;20659;-68
2024/02/14 10:59:24;;;;;;;13.27;4.65;;;;;;;7.32;66.43;101284.94;4956295;28;20049;-67
2024/02/14 11:01:49;;;;;;;14.52;5.07;;;;;;;7.44;66.36;101286.41;5003560;28;20158;-69
2024/02/14 11:04:16;;;;;;;14.80;5.43;;;;;;;7.60;65.86;101285.28;5006459;28;20413;-67
2024/02/14 11:06:49;;;;;;;16.48;6.05;;;;;;;7.49;66.03;101289.81;4999269;28;20041;-68
2024/02/14 11:09:17;;;;;;;17.70;7.13;;;;;;;7.52;65.74;101282.78;4969277;28;20439;-65
2024/02/14 11:11:46;;;;;;;20.60;6.38;;;;;;;7.73;65.27;101286.72;5001401;28;20152;-68
2024/02/14 11:14:19;;;;;;;24.15;5.88;;;;;;;7.82;65.41;101287.41;5004634;28;20041;-68
2024/02/14 11:16:47;;;;;;;19.70;5.80;;;;;;;7.68;65.35;101278.13;5006222;28;20574;-67
2024/02/14 11:19:16;;;;;;;22.50;6.60;;;;;;;7.51;66.24;101273.28;4992864;28;20399;-68
2024/02/14 11:21:43;;;;;;;21.35;6.05;;;;;;;7.59;65.80;101278.34;4974814;28;20518;-66
2024/02/14 11:24:10;;;;;;;13.55;6.75;;;;;;;7.56;65.79;101286.22;4991668;28;20041;-67
2024/02/14 11:26:45;;;;;;;22.27;6.00;;;;;;;6.71;68.17;101279.13;5009700;28;20041;-64